Time;durP1;ratioP1;P1;durP2;ratioP2;P2;SDS_P1;SDS_P2;PMS_P1;PMS_P2;Temp;Humidity;BMP_temperature;BMP_pressure;BME280_temperature;BME280_humidity;BME280_pressure;Samples;Min_cycle;Max_cycle;Signal;HPM_P1;HPM_P2
2021/09/30 00:02:20;;;;;;;7.55;2.47;;;16.90;82.30;;;;;;4988431;28;20108;-60
2021/09/30 00:04:46;;;;;;;10.43;3.08;;;16.90;82.30;;;;;;5004860;28;20057;-60
2021/09/30 00:07:11;;;;;;;8.82;2.90;;;16.90;82.30;;;;;;5018287;28;20034;-59
2021/09/30 00:09:39;;;;;;;11.13;2.75;;;16.90;82.40;;;;;;5018888;28;20577;-60
2021/09/30 00:12:14;;;;;;;12.32;3.08;;;16.90;82.40;;;;;;5015997;28;20224;-59
2021/09/30 00:15:02;;;;;;;;;;;16.80;82.30;;;;;;5005779;28;20056;-60
2021/09/30 00:49:13;;;;;;;9.60;2.30;;;16.70;82.70;;;;;;5004844;28;20140;-59
2021/09/30 00:51:47;;;;;;;7.07;1.95;;;16.80;82.70;;;;;;5020010;28;20252;-60
2021/09/30 01:52:03;;;;;;;18.48;4.03;;;16.50;82.70;;;;;;5020693;28;20939;-59
2021/09/30 01:58:14;;;;;;;29.73;4.00;;;16.40;82.80;;;;;;5020070;28;20041;-60
2021/09/30 02:20:23;;;;;;;15.73;3.75;;;16.30;82.80;;;;;;5018505;28;20460;-63
2021/09/30 02:23:16;;;;;;;21.42;3.38;;;16.30;82.90;;;;;;5006626;28;20037;-62
2021/09/30 02:26:04;;;;;;;12.48;3.30;;;16.30;82.90;;;;;;5009265;28;20041;-59
2021/09/30 02:28:46;;;;;;;21.73;3.83;;;16.30;82.90;;;;;;5005991;28;20090;-60
2021/09/30 02:58:34;;;;;;;23.10;2.88;;;16.20;82.80;;;;;;5003932;28;20087;-59
2021/09/30 03:01:06;;;;;;;18.15;3.53;;;16.20;82.80;;;;;;5020547;28;20374;-60
2021/09/30 03:03:36;;;;;;;26.98;3.92;;;16.20;82.80;;;;;;5019026;28;20033;-60
2021/09/30 03:06:03;;;;;;;13.85;3.38;;;16.20;82.90;;;;;;5016460;28;20079;-60
2021/09/30 03:08:30;;;;;;;12.13;3.17;;;16.10;82.90;;;;;;5019366;28;20048;-60
2021/09/30 03:10:57;;;;;;;22.70;3.70;;;16.20;83.20;;;;;;5003464;28;20026;-60
2021/09/30 03:13:22;;;;;;;13.93;3.53;;;16.10;82.90;;;;;;4985901;28;20100;-60
2021/09/30 03:15:55;;;;;;;23.05;4.03;;;16.20;83.00;;;;;;5004717;28;20026;-60
2021/09/30 03:18:27;;;;;;;13.13;2.58;;;16.10;82.90;;;;;;5000506;28;20611;-60
2021/09/30 03:22:02;;;;;;;13.88;2.72;;;16.10;82.80;;;;;;5000945;28;20360;-60
2021/09/30 03:23:38;;;;;;;12.88;2.70;;;16.10;82.80;;;;;;5004627;28;20126;-60
2021/09/30 03:26:04;;;;;;;12.73;2.75;;;16.10;82.80;;;;;;4985068;28;20041;-60
2021/09/30 03:28:30;;;;;;;12.18;2.67;;;16.10;82.80;;;;;;5001925;28;20064;-60
2021/09/30 03:30:56;;;;;;;10.30;2.67;;;16.10;82.80;;;;;;4988184;28;20468;-60
2021/09/30 03:33:22;;;;;;;10.80;2.42;;;16.10;82.80;;;;;;5019214;28;20025;-60
2021/09/30 03:35:48;;;;;;;12.63;2.58;;;16.10;82.90;;;;;;5018408;28;20033;-59
2021/09/30 03:38:13;;;;;;;9.73;2.47;;;16.10;82.90;;;;;;5018878;28;20168;-60
2021/09/30 03:40:39;;;;;;;7.30;2.50;;;16.10;82.80;;;;;;5018792;28;20075;-60
2021/09/30 03:43:05;;;;;;;7.80;2.42;;;16.10;82.80;;;;;;5021293;28;20060;-60
2021/09/30 03:45:31;;;;;;;8.15;2.90;;;16.10;82.80;;;;;;5020189;28;20033;-60
2021/09/30 03:47:56;;;;;;;10.95;2.40;;;16.10;82.90;;;;;;5020462;28;20022;-60
2021/09/30 03:50:25;;;;;;;7.05;1.92;;;16.10;82.90;;;;;;5018551;28;20021;-60
2021/09/30 03:55:38;;;;;;;5.85;1.75;;;16.10;82.90;;;;;;5020815;28;20037;-59
2021/09/30 04:00:35;;;;;;;10.07;2.05;;;16.10;82.80;;;;;;5024330;28;20108;-60
2021/09/30 04:03:01;;;;;;;10.48;2.13;;;16.10;82.80;;;;;;4991830;28;20033;-60
2021/09/30 04:05:26;;;;;;;11.13;2.90;;;16.10;82.90;;;;;;5022668;28;20045;-60
2021/09/30 04:07:52;;;;;;;12.77;2.30;;;16.00;82.80;;;;;;5021611;28;20029;-60
2021/09/30 04:10:17;;;;;;;9.13;2.75;;;16.10;82.90;;;;;;5021867;28;20041;-59
2021/09/30 04:12:43;;;;;;;9.48;2.63;;;16.00;82.80;;;;;;5022984;28;20029;-60
2021/09/30 04:15:09;;;;;;;8.02;2.97;;;16.00;82.70;;;;;;5023675;28;20018;-60
2021/09/30 04:17:34;;;;;;;12.75;2.63;;;16.00;82.80;;;;;;4990491;28;20069;-60
2021/09/30 04:20:00;;;;;;;10.50;2.22;;;16.00;83.40;;;;;;5024086;28;20112;-60
2021/09/30 04:22:25;;;;;;;7.75;2.75;;;16.00;82.70;;;;;;5023452;28;20040;-60
2021/09/30 04:24:51;;;;;;;6.28;2.25;;;16.00;82.70;;;;;;5025961;28;20036;-60
2021/09/30 04:27:16;;;;;;;8.48;2.45;;;16.00;82.70;;;;;;5019744;28;20107;-59
2021/09/30 04:29:42;;;;;;;9.30;2.40;;;16.00;82.70;;;;;;5023592;28;20045;-60
2021/09/30 04:32:08;;;;;;;6.28;2.40;;;16.00;82.70;;;;;;5022291;28;20394;-60
2021/09/30 04:34:33;;;;;;;9.23;2.20;;;15.90;82.50;;;;;;5023706;28;20032;-60
2021/09/30 04:36:59;;;;;;;7.03;2.28;;;15.90;82.50;;;;;;4988019;28;20044;-60
2021/09/30 04:39:24;;;;;;;6.28;2.00;;;15.90;82.60;;;;;;5024676;28;20532;-60
2021/09/30 04:41:50;;;;;;;20.92;3.47;;;15.90;82.60;;;;;;5020705;28;20025;-60
2021/09/30 04:44:15;;;;;;;14.65;2.50;;;16.00;82.70;;;;;;5006923;28;20781;-60
2021/09/30 04:46:41;;;;;;;7.90;2.30;;;15.90;82.60;;;;;;5003651;28;20140;-60
2021/09/30 04:49:07;;;;;;;4.65;1.98;;;15.90;82.50;;;;;;5021880;28;20480;-60
2021/09/30 04:51:33;;;;;;;12.20;2.50;;;15.90;82.60;;;;;;5023014;28;20533;-59
2021/09/30 04:53:58;;;;;;;5.97;2.08;;;15.90;82.60;;;;;;4991225;28;20030;-60
2021/09/30 04:56:24;;;;;;;7.00;2.28;;;15.90;82.70;;;;;;5022293;28;20674;-60
2021/09/30 04:58:49;;;;;;;9.90;2.65;;;15.90;82.70;;;;;;4990767;28;20030;-60
2021/09/30 05:01:15;;;;;;;4.90;1.40;;;15.90;82.90;;;;;;5005707;28;20071;-60
2021/09/30 05:03:41;;;;;;;3.67;1.63;;;15.80;82.80;;;;;;5023759;28;20101;-61
2021/09/30 05:06:06;;;;;;;10.23;2.08;;;15.90;82.80;;;;;;5022086;28;20038;-60
2021/09/30 05:08:34;;;;;;;16.35;2.28;;;15.90;82.90;;;;;;5020993;28;20041;-60
2021/09/30 05:11:01;;;;;;;6.68;1.63;;;15.80;82.80;;;;;;5018867;28;20046;-60
2021/09/30 05:13:36;;;;;;;13.43;1.98;;;15.80;82.80;;;;;;5022304;28;20036;-60
2021/09/30 05:16:05;;;;;;;4.72;1.42;;;15.80;82.80;;;;;;5023729;28;20080;-60
2021/09/30 05:18:31;;;;;;;5.57;2.05;;;15.80;83.00;;;;;;5025484;28;20093;-60
2021/09/30 05:20:57;;;;;;;8.23;1.88;;;15.80;82.90;;;;;;5021459;28;20120;-60
2021/09/30 05:23:23;;;;;;;8.93;1.90;;;15.80;82.90;;;;;;5020997;28;20495;-60
2021/09/30 05:25:49;;;;;;;5.85;1.58;;;15.80;82.90;;;;;;5022046;28;20410;-60
2021/09/30 05:28:14;;;;;;;6.97;1.77;;;15.80;82.80;;;;;;5006103;28;20125;-60
2021/09/30 05:30:40;;;;;;;7.32;1.35;;;15.70;82.90;;;;;;5022715;28;20038;-60
2021/09/30 05:33:05;;;;;;;11.32;2.00;;;15.70;82.90;;;;;;5022023;28;20048;-60
2021/09/30 05:35:31;;;;;;;3.85;1.90;;;15.70;82.90;;;;;;5015314;28;20140;-60
2021/09/30 05:37:56;;;;;;;9.23;1.55;;;15.70;82.90;;;;;;5020721;28;20026;-60
2021/09/30 05:40:23;;;;;;;5.47;1.67;;;15.70;82.80;;;;;;5006695;28;21537;-60
2021/09/30 05:42:49;;;;;;;4.43;1.15;;;15.70;82.90;;;;;;5006077;28;20113;-60
2021/09/30 05:45:16;;;;;;;5.38;1.48;;;15.70;82.90;;;;;;5023004;28;20113;-60
2021/09/30 05:47:42;;;;;;;5.30;1.65;;;15.70;83.00;;;;;;5004837;28;20128;-60
2021/09/30 05:50:08;;;;;;;6.72;1.48;;;15.70;83.00;;;;;;4989141;28;20041;-60
2021/09/30 05:52:36;;;;;;;6.85;1.85;;;15.70;83.00;;;;;;5019693;28;20116;-60
2021/09/30 05:55:03;;;;;;;6.15;1.38;;;15.70;83.00;;;;;;5001681;28;20369;-60
2021/09/30 05:57:29;;;;;;;6.35;1.35;;;15.60;83.00;;;;;;4989065;28;20473;-60
2021/09/30 05:59:55;;;;;;;6.43;1.63;;;15.60;83.00;;;;;;5021331;28;20040;-60
2021/09/30 06:07:12;;;;;;;5.45;1.63;;;15.60;83.10;;;;;;5016235;28;20059;-60
2021/09/30 06:10:49;;;;;;;4.38;1.30;;;15.60;83.10;;;;;;5019282;28;20040;-60
2021/09/30 06:13:18;;;;;;;6.53;1.45;;;15.60;83.10;;;;;;5000741;28;20045;-60
2021/09/30 06:15:45;;;;;;;10.73;2.13;;;15.60;83.00;;;;;;5015221;28;20140;-60
2021/09/30 06:18:10;;;;;;;12.68;2.08;;;15.60;83.00;;;;;;5021562;28;20091;-60
2021/09/30 06:20:39;;;;;;;10.88;1.95;;;15.50;83.10;;;;;;5014870;28;20430;-59
2021/09/30 06:23:04;;;;;;;14.85;1.70;;;15.50;83.20;;;;;;5001770;28;20030;-60
2021/09/30 06:25:30;;;;;;;34.85;3.40;;;15.50;83.20;;;;;;5015435;28;20365;-60
2021/09/30 06:27:55;;;;;;;11.88;2.63;;;15.50;83.30;;;;;;5018398;28;20045;-60
2021/09/30 06:30:22;;;;;;;48.40;6.88;;;15.60;83.40;;;;;;5017481;28;20026;-60
2021/09/30 06:32:49;;;;;;;48.45;4.82;;;15.60;83.50;;;;;;5017080;28;20029;-60
2021/09/30 06:35:15;;;;;;;42.38;6.38;;;15.50;83.50;;;;;;4996087;28;20036;-60
2021/09/30 06:37:40;;;;;;;64.43;7.05;;;15.50;83.60;;;;;;5002248;28;20029;-60
2021/09/30 06:40:07;;;;;;;34.63;5.22;;;15.50;83.60;;;;;;5016604;28;20335;-60
2021/09/30 06:42:32;;;;;;;36.72;5.35;;;15.50;83.70;;;;;;4997336;28;20128;-60
2021/09/30 06:44:58;;;;;;;56.60;5.80;;;15.50;83.80;;;;;;5017999;28;20261;-60
2021/09/30 06:47:23;;;;;;;100.70;10.05;;;15.50;83.80;;;;;;5018000;28;20393;-60
2021/09/30 06:49:49;;;;;;;102.55;12.63;;;15.50;84.00;;;;;;5019382;28;20037;-60
2021/09/30 06:52:14;;;;;;;94.25;10.00;;;15.50;84.10;;;;;;5001063;28;20156;-60
2021/09/30 06:54:40;;;;;;;72.97;7.90;;;15.50;84.10;;;;;;5018841;28;20045;-60
2021/09/30 06:57:05;;;;;;;65.28;6.85;;;15.50;84.00;;;;;;5014748;28;20049;-60
2021/09/30 06:59:35;;;;;;;90.60;9.48;;;15.40;84.00;;;;;;5017068;28;20043;-60
2021/09/30 07:02:07;;;;;;;67.90;7.53;;;15.40;84.10;;;;;;5016223;28;20182;-60
2021/09/30 07:04:33;;;;;;;65.43;7.05;;;15.40;84.10;;;;;;5003507;28;20037;-60
2021/09/30 07:06:59;;;;;;;82.47;7.45;;;15.40;84.20;;;;;;5001403;28;21493;-60
2021/09/30 07:09:24;;;;;;;52.13;5.95;;;15.40;84.20;;;;;;4997256;28;20044;-60
2021/09/30 07:11:50;;;;;;;45.38;6.55;;;15.30;83.90;;;;;;5012253;28;20457;-60
2021/09/30 07:14:15;;;;;;;73.68;6.85;;;15.30;83.70;;;;;;5017782;28;20465;-60
2021/09/30 07:16:41;;;;;;;66.55;7.18;;;15.30;83.70;;;;;;5000437;28;20091;-60
2021/09/30 07:19:07;;;;;;;49.17;5.85;;;15.30;83.70;;;;;;4997859;28;20041;-60
2021/09/30 07:21:33;;;;;;;71.50;7.32;;;15.30;83.60;;;;;;5014322;28;20439;-60
2021/09/30 07:23:59;;;;;;;61.35;6.60;;;15.20;83.70;;;;;;5017083;28;20099;-60
2021/09/30 07:26:25;;;;;;;66.18;6.72;;;15.30;84.20;;;;;;5016413;28;20045;-60
2021/09/30 07:28:51;;;;;;;43.50;6.25;;;15.20;83.70;;;;;;5019336;28;20143;-60
2021/09/30 07:31:17;;;;;;;60.88;6.32;;;15.20;84.30;;;;;;5019823;28;20029;-60
2021/09/30 07:33:42;;;;;;;59.20;6.55;;;15.20;83.40;;;;;;5015557;28;20155;-60
2021/09/30 07:36:08;;;;;;;59.83;6.65;;;15.20;83.30;;;;;;4999083;28;20017;-60
2021/09/30 07:38:33;;;;;;;40.22;4.80;;;15.20;83.00;;;;;;5002340;28;20029;-59
2021/09/30 07:40:59;;;;;;;46.15;5.40;;;15.20;82.40;;;;;;5002318;28;20033;-60
2021/09/30 07:43:24;;;;;;;41.90;6.38;;;15.20;82.20;;;;;;5015080;28;20449;-60
2021/09/30 07:45:50;;;;;;;41.63;4.85;;;15.20;82.30;;;;;;4984049;28;20549;-59
2021/09/30 07:48:15;;;;;;;35.25;4.65;;;15.10;82.00;;;;;;5016939;28;20523;-60
2021/09/30 07:50:41;;;;;;;52.17;4.63;;;15.20;82.20;;;;;;5001008;28;20059;-60
2021/09/30 07:53:07;;;;;;;38.10;4.85;;;15.20;82.20;;;;;;4999353;28;20025;-60
2021/09/30 07:55:32;;;;;;;31.45;3.97;;;15.20;82.20;;;;;;5000477;28;20025;-60
2021/09/30 07:57:58;;;;;;;26.10;4.57;;;15.20;82.00;;;;;;4984417;28;20071;-60
2021/09/30 08:00:23;;;;;;;32.33;4.45;;;15.20;82.00;;;;;;4996594;28;20045;-60
2021/09/30 08:02:49;;;;;;;24.35;3.78;;;15.20;81.40;;;;;;4997206;28;20069;-60
2021/09/30 08:05:14;;;;;;;30.27;3.58;;;15.10;81.40;;;;;;5015071;28;20372;-60
2021/09/30 08:07:40;;;;;;;26.65;3.70;;;15.10;81.30;;;;;;5017660;28;20048;-60
2021/09/30 08:10:06;;;;;;;27.65;4.45;;;15.10;81.40;;;;;;5016971;28;20037;-60
2021/09/30 08:12:31;;;;;;;35.53;4.38;;;15.10;81.30;;;;;;4983420;28;20041;-60
2021/09/30 08:14:57;;;;;;;41.22;5.10;;;15.10;81.00;;;;;;5015739;28;20057;-60
2021/09/30 08:17:22;;;;;;;50.03;5.68;;;15.10;81.10;;;;;;5017830;28;21624;-60
2021/09/30 08:19:48;;;;;;;50.60;6.32;;;15.10;81.00;;;;;;5015298;28;20021;-59
2021/09/30 08:22:14;;;;;;;48.17;6.05;;;15.10;81.70;;;;;;5015594;28;20029;-60
2021/09/30 08:24:39;;;;;;;46.65;6.03;;;15.10;81.00;;;;;;4997475;28;20332;-60
2021/09/30 08:27:05;;;;;;;47.40;5.30;;;15.10;81.10;;;;;;5013264;28;20041;-60
2021/09/30 08:29:30;;;;;;;40.30;5.50;;;15.20;81.00;;;;;;4997491;28;20155;-60
2021/09/30 08:31:56;;;;;;;46.55;5.40;;;15.20;80.90;;;;;;5000774;28;20044;-60
2021/09/30 08:34:21;;;;;;;40.42;5.93;;;15.20;80.90;;;;;;5014807;28;20025;-60
2021/09/30 08:36:47;;;;;;;47.35;4.53;;;15.20;80.80;;;;;;4979021;28;20065;-59
2021/09/30 08:39:13;;;;;;;45.78;5.22;;;15.10;80.70;;;;;;4999637;28;20042;-60
2021/09/30 08:41:38;;;;;;;38.10;5.38;;;15.10;80.80;;;;;;5015138;28;20022;-60
2021/09/30 08:44:05;;;;;;;37.47;5.20;;;15.10;80.70;;;;;;5014593;28;20406;-60
2021/09/30 08:46:32;;;;;;;51.75;6.30;;;15.10;80.30;;;;;;5001665;28;20053;-60
2021/09/30 08:48:58;;;;;;;49.03;5.53;;;15.10;80.60;;;;;;4990747;28;20060;-60
2021/09/30 08:51:23;;;;;;;50.92;6.53;;;15.10;80.60;;;;;;5003355;28;20053;-59
2021/09/30 08:53:49;;;;;;;51.15;6.80;;;15.20;80.70;;;;;;5020051;28;20080;-60
2021/09/30 08:56:14;;;;;;;43.80;5.80;;;15.20;80.60;;;;;;5019169;28;20449;-60
2021/09/30 08:58:40;;;;;;;53.97;5.50;;;15.20;80.80;;;;;;5005543;28;20488;-60
2021/09/30 09:01:07;;;;;;;49.33;5.90;;;15.20;80.40;;;;;;5005344;28;20687;-63
2021/09/30 09:03:37;;;;;;;61.92;6.13;;;15.20;80.30;;;;;;4989229;28;20112;-62
2021/09/30 09:06:03;;;;;;;52.70;6.90;;;15.20;80.00;;;;;;4987273;28;20048;-61
2021/09/30 09:08:28;;;;;;;74.72;6.00;;;15.20;80.10;;;;;;5019451;28;20034;-60
2021/09/30 09:10:55;;;;;;;50.75;5.32;;;15.30;80.00;;;;;;5020852;28;20108;-60
2021/09/30 09:13:23;;;;;;;74.13;7.50;;;15.30;80.10;;;;;;4987974;28;20039;-60
2021/09/30 09:16:02;;;;;;;55.63;7.07;;;15.30;80.10;;;;;;5020114;28;20125;-60
2021/09/30 09:18:38;;;;;;;62.83;6.47;;;15.30;80.00;;;;;;5004622;28;20163;-60
2021/09/30 09:21:22;;;;;;;65.15;8.07;;;15.40;79.70;;;;;;5002906;28;20118;-60
2021/09/30 09:23:51;;;;;;;79.30;9.40;;;15.30;78.80;;;;;;5004914;28;20037;-60
2021/09/30 09:26:18;;;;;;;78.88;8.73;;;15.40;78.80;;;;;;5018003;28;20069;-60
2021/09/30 09:29:04;;;;;;;78.93;8.43;;;15.40;78.90;;;;;;5002943;28;20048;-60
2021/09/30 09:31:38;;;;;;;;;;;15.40;79.00;;;;;;5017507;28;20485;-60
2021/09/30 09:34:21;;;;;;;73.78;7.97;;;15.40;78.80;;;;;;5014983;28;19913;-60
2021/09/30 09:36:49;;;;;;;81.47;8.02;;;15.40;78.90;;;;;;5000591;28;20485;-60
2021/09/30 09:39:15;;;;;;;67.55;7.40;;;15.50;79.10;;;;;;4987675;28;20500;-60
2021/09/30 09:41:41;;;;;;;77.55;8.55;;;15.50;78.70;;;;;;5001108;28;20037;-59
2021/09/30 09:44:07;;;;;;;64.55;7.88;;;15.50;78.60;;;;;;5018385;28;20512;-60
2021/09/30 09:46:35;;;;;;;69.05;7.35;;;15.50;78.40;;;;;;5002164;28;20489;-60
2021/09/30 09:49:08;;;;;;;79.53;9.05;;;15.50;78.10;;;;;;5019446;28;20125;-59
2021/09/30 09:51:43;;;;;;;76.45;8.40;;;15.50;77.90;;;;;;4999082;28;20077;-60
2021/09/30 09:54:28;;;;;;;101.57;9.93;;;15.60;78.10;;;;;;5018276;28;20014;-60
2021/09/30 09:56:54;;;;;;;78.65;10.60;;;15.60;78.20;;;;;;4999112;28;20222;-60
2021/09/30 09:59:29;;;;;;;102.45;9.15;;;15.60;78.30;;;;;;5016272;28;20143;-60
2021/09/30 10:01:56;;;;;;;68.32;8.75;;;15.60;78.40;;;;;;5003055;28;20025;-60
2021/09/30 10:04:22;;;;;;;57.45;6.75;;;15.70;77.90;;;;;;5014238;28;20044;-60
2021/09/30 10:06:48;;;;;;;71.40;7.93;;;15.70;77.80;;;;;;4996686;28;20049;-60
2021/09/30 10:09:14;;;;;;;86.20;9.68;;;15.70;77.70;;;;;;4984858;28;20690;-60
2021/09/30 10:11:40;;;;;;;164.45;15.25;;;15.70;77.90;;;;;;4991899;28;20207;-60
2021/09/30 10:14:06;;;;;;;115.70;12.52;;;15.70;77.80;;;;;;4982957;28;20068;-60
2021/09/30 10:16:32;;;;;;;108.40;10.45;;;15.70;77.70;;;;;;5017013;28;20025;-60
2021/09/30 10:18:59;;;;;;;118.35;12.93;;;15.80;77.90;;;;;;5017289;28;20035;-61
2021/09/30 10:21:25;;;;;;;88.75;10.02;;;15.80;77.90;;;;;;5016641;28;20117;-60
2021/09/30 10:23:53;;;;;;;98.97;10.65;;;15.80;77.40;;;;;;4998585;28;20037;-60
2021/09/30 10:26:24;;;;;;;128.25;14.50;;;15.80;77.20;;;;;;4999257;28;20095;-60
2021/09/30 10:28:50;;;;;;;81.93;10.50;;;15.80;76.90;;;;;;4983006;28;20037;-60
2021/09/30 10:31:20;;;;;;;102.55;13.18;;;15.80;76.80;;;;;;5019982;28;20048;-60
2021/09/30 10:33:45;;;;;;;111.68;12.52;;;15.90;76.80;;;;;;5018710;28;20095;-60
2021/09/30 10:36:37;;;;;;;99.78;11.75;;;15.90;76.40;;;;;;4998720;28;20704;-60
2021/09/30 10:39:23;;;;;;;82.05;8.43;;;15.90;76.30;;;;;;5016890;28;20059;-60
2021/09/30 10:41:59;;;;;;;73.15;9.30;;;15.90;75.10;;;;;;5013738;28;20508;-61
2021/09/30 10:44:28;;;;;;;62.08;8.18;;;15.90;74.10;;;;;;5001178;28;20037;-60
2021/09/30 10:46:56;;;;;;;60.90;7.32;;;15.90;74.10;;;;;;4984344;28;20760;-60
2021/09/30 10:49:52;;;;;;;53.80;6.07;;;15.90;74.00;;;;;;5014415;28;20049;-60
2021/09/30 10:52:19;;;;;;;57.45;6.85;;;15.90;73.30;;;;;;5010382;28;20041;-60
2021/09/30 10:54:51;;;;;;;82.22;8.90;;;15.90;73.50;;;;;;5015725;28;20057;-63
2021/09/30 10:57:42;;;;;;;78.30;7.95;;;16.00;73.60;;;;;;5015651;28;20375;-63
2021/09/30 11:00:11;;;;;;;61.28;7.22;;;15.90;73.60;;;;;;5018198;28;20133;-62
2021/09/30 11:03:02;;;;;;;87.63;9.98;;;16.00;73.90;;;;;;4999207;28;20037;-62
2021/09/30 11:05:28;;;;;;;44.63;6.15;;;16.00;74.20;;;;;;5014734;28;20037;-60
2021/09/30 11:08:19;;;;;;;48.00;6.88;;;16.10;73.60;;;;;;4999043;28;20033;-60
2021/09/30 11:11:07;;;;;;;52.78;6.22;;;16.10;73.30;;;;;;5001576;28;20041;-63
2021/09/30 11:13:42;;;;;;;33.28;4.78;;;16.20;73.00;;;;;;5017645;28;20397;-62
2021/09/30 11:16:17;;;;;;;32.45;4.07;;;16.20;71.70;;;;;;5013557;28;20036;-62
2021/09/30 11:18:53;;;;;;;54.45;5.57;;;16.20;71.70;;;;;;5013638;28;20557;-63
2021/09/30 11:21:28;;;;;;;53.33;6.97;;;16.20;72.10;;;;;;5016160;28;20377;-62
2021/09/30 11:23:54;;;;;;;52.88;6.28;;;16.30;72.40;;;;;;5016394;28;20029;-63
2021/09/30 11:26:19;;;;;;;42.10;5.03;;;16.30;72.50;;;;;;4981339;28;21314;-62
2021/09/30 11:28:45;;;;;;;25.80;3.60;;;16.30;71.40;;;;;;5015206;28;20050;-62
2021/09/30 11:31:25;;;;;;;37.15;4.25;;;16.30;70.90;;;;;;5012547;28;20052;-62
2021/09/30 11:33:51;;;;;;;48.22;5.50;;;16.30;70.40;;;;;;5014200;28;20026;-62
2021/09/30 11:36:16;;;;;;;34.35;4.82;;;16.30;71.30;;;;;;4983951;28;21546;-63
2021/09/30 11:38:42;;;;;;;36.50;3.28;;;16.30;70.50;;;;;;5017930;28;20041;-62
2021/09/30 11:41:08;;;;;;;35.20;4.50;;;16.30;69.60;;;;;;5016344;28;20031;-63
2021/09/30 11:43:34;;;;;;;17.75;2.40;;;16.30;69.90;;;;;;4999445;28;20060;-63
2021/09/30 11:46:42;;;;;;;44.42;4.50;;;16.30;69.60;;;;;;5019265;28;20044;-62
2021/09/30 11:49:09;;;;;;;27.48;3.40;;;16.40;69.80;;;;;;5018914;28;20299;-60
2021/09/30 11:51:37;;;;;;;19.95;2.80;;;16.40;69.60;;;;;;5002890;28;20025;-60
2021/09/30 11:54:03;;;;;;;12.52;2.45;;;16.40;69.50;;;;;;5000226;28;20029;-60
2021/09/30 11:56:29;;;;;;;18.33;2.58;;;16.50;69.10;;;;;;5017632;28;20037;-60
2021/09/30 11:58:59;;;;;;;21.67;2.75;;;16.50;68.30;;;;;;4986254;28;20032;-60
2021/09/30 12:01:33;;;;;;;20.13;2.50;;;16.50;68.50;;;;;;5017597;28;20030;-60
2021/09/30 12:03:58;;;;;;;8.52;1.42;;;16.60;68.10;;;;;;5017088;28;20036;-60
2021/09/30 12:06:40;;;;;;;18.70;2.42;;;16.60;67.60;;;;;;5003259;28;20117;-60
2021/09/30 12:09:07;;;;;;;14.85;2.70;;;16.60;67.70;;;;;;5016711;28;20061;-60
2021/09/30 12:11:36;;;;;;;16.17;2.45;;;16.60;67.70;;;;;;4985782;28;20034;-60
2021/09/30 12:14:03;;;;;;;13.98;2.28;;;16.70;67.50;;;;;;4983146;28;20068;-60
2021/09/30 12:16:29;;;;;;;16.92;2.20;;;16.70;67.70;;;;;;4997175;28;20396;-60
2021/09/30 12:19:02;;;;;;;33.63;3.13;;;16.70;67.80;;;;;;5014916;28;20056;-60
2021/09/30 12:21:39;;;;;;;15.25;3.03;;;16.70;67.40;;;;;;4983397;28;20040;-60
2021/09/30 12:24:08;;;;;;;16.77;2.90;;;16.70;67.80;;;;;;5017545;28;20067;-60
2021/09/30 12:26:34;;;;;;;24.45;2.70;;;16.80;67.10;;;;;;5000110;28;20092;-60
2021/09/30 12:29:00;;;;;;;19.15;3.40;;;16.80;67.10;;;;;;4998225;28;20466;-60
2021/09/30 12:31:26;;;;;;;31.58;4.63;;;16.80;67.40;;;;;;4983692;28;20041;-59
2021/09/30 12:33:51;;;;;;;140.68;15.55;;;16.90;67.30;;;;;;5018029;28;20053;-60
2021/09/30 12:36:17;;;;;;;54.10;5.47;;;16.90;67.50;;;;;;5019399;28;20052;-60
2021/09/30 12:38:59;;;;;;;95.00;10.00;;;16.90;67.40;;;;;;5017658;28;20033;-60
2021/09/30 12:41:24;;;;;;;149.45;16.00;;;16.90;67.10;;;;;;5009685;28;20049;-60
2021/09/30 12:43:50;;;;;;;82.30;9.07;;;17.00;67.40;;;;;;5017181;28;20437;-60
2021/09/30 12:46:18;;;;;;;70.60;7.55;;;17.00;67.20;;;;;;5002231;28;20029;-60
2021/09/30 12:48:43;;;;;;;62.35;6.45;;;17.10;67.40;;;;;;5003431;28;20128;-60
2021/09/30 12:51:14;;;;;;;101.00;8.95;;;17.10;67.60;;;;;;4986404;28;20025;-60
2021/09/30 12:53:44;;;;;;;98.22;10.00;;;17.10;67.60;;;;;;5018356;28;20028;-60
2021/09/30 12:56:11;;;;;;;82.88;7.88;;;17.10;67.50;;;;;;4982383;28;20025;-60
2021/09/30 12:58:47;;;;;;;86.65;10.05;;;17.20;67.30;;;;;;5017778;28;20045;-60
2021/09/30 13:01:20;;;;;;;52.15;6.50;;;17.20;67.00;;;;;;5016761;28;20085;-60
2021/09/30 13:04:04;;;;;;;72.38;7.55;;;17.20;66.20;;;;;;5017183;28;20048;-60
2021/09/30 13:06:29;;;;;;;74.28;6.97;;;17.20;66.60;;;;;;5017442;28;20029;-60
2021/09/30 13:08:55;;;;;;;50.53;7.13;;;17.30;66.90;;;;;;4985727;28;20036;-60
2021/09/30 13:11:30;;;;;;;68.60;7.25;;;17.30;66.20;;;;;;5017627;28;20026;-60
2021/09/30 13:14:17;;;;;;;93.38;8.18;;;17.30;66.60;;;;;;5018570;28;20037;-60
2021/09/30 13:16:53;;;;;;;72.15;7.95;;;17.30;66.60;;;;;;5021080;28;20030;-60
2021/09/30 13:19:20;;;;;;;68.57;6.95;;;17.40;66.20;;;;;;5015251;28;20034;-61
2021/09/30 13:22:00;;;;;;;82.97;8.18;;;17.40;66.30;;;;;;5001253;28;20022;-60
2021/09/30 13:24:26;;;;;;;62.60;6.75;;;17.40;66.30;;;;;;5000891;28;20176;-60
2021/09/30 13:26:52;;;;;;;55.83;6.88;;;17.50;66.80;;;;;;5011445;28;20041;-60
2021/09/30 13:29:17;;;;;;;43.13;5.78;;;17.40;66.20;;;;;;5015795;28;20136;-60
2021/09/30 13:31:43;;;;;;;56.90;6.25;;;17.40;65.90;;;;;;5012893;28;20064;-60
2021/09/30 13:34:08;;;;;;;91.68;7.68;;;17.50;66.50;;;;;;5010144;28;20116;-60
2021/09/30 13:36:34;;;;;;;44.08;5.32;;;17.50;66.10;;;;;;4998064;28;20144;-60
2021/09/30 13:39:00;;;;;;;58.42;5.75;;;17.50;65.90;;;;;;4984995;28;20144;-60
2021/09/30 13:41:26;;;;;;;72.57;6.07;;;17.50;65.70;;;;;;5009233;28;20095;-60
2021/09/30 13:43:52;;;;;;;63.17;7.03;;;17.50;66.20;;;;;;4979865;28;20033;-60
2021/09/30 13:46:18;;;;;;;57.85;5.90;;;17.60;65.90;;;;;;5000173;28;20037;-60
2021/09/30 13:48:44;;;;;;;66.85;6.70;;;17.60;65.60;;;;;;5018117;28;20040;-60
2021/09/30 13:51:09;;;;;;;61.08;6.32;;;17.60;65.60;;;;;;5000408;28;20661;-60
2021/09/30 13:53:35;;;;;;;67.05;7.53;;;17.60;66.70;;;;;;4999078;28;20050;-60
2021/09/30 13:56:00;;;;;;;75.53;8.05;;;17.60;65.40;;;;;;5014442;28;20542;-60
2021/09/30 13:58:26;;;;;;;54.72;6.03;;;17.70;65.60;;;;;;5017346;28;20549;-60
2021/09/30 14:00:52;;;;;;;47.50;5.55;;;17.70;65.10;;;;;;4986276;28;20087;-60
2021/09/30 14:03:17;;;;;;;67.28;6.47;;;17.70;64.40;;;;;;4999729;28;20573;-60
2021/09/30 14:05:43;;;;;;;60.10;6.28;;;17.70;64.90;;;;;;4998123;28;20572;-60
2021/09/30 14:08:09;;;;;;;88.90;10.52;;;17.70;64.40;;;;;;4984062;28;20053;-60
2021/09/30 14:10:34;;;;;;;86.95;7.75;;;17.70;64.60;;;;;;4994040;28;20557;-61
2021/09/30 14:13:00;;;;;;;68.00;7.50;;;17.70;64.20;;;;;;4978011;28;20033;-60
2021/09/30 14:15:25;;;;;;;77.18;7.55;;;17.70;64.20;;;;;;5016905;28;20048;-61
2021/09/30 14:17:51;;;;;;;53.33;6.20;;;17.70;64.10;;;;;;5003073;28;20033;-60
2021/09/30 14:20:16;;;;;;;53.15;6.13;;;17.70;64.30;;;;;;5017849;28;20060;-60
2021/09/30 14:22:42;;;;;;;42.10;6.10;;;17.70;63.60;;;;;;4999009;28;20084;-60
2021/09/30 14:25:08;;;;;;;87.82;7.05;;;17.70;63.90;;;;;;5014299;28;20489;-60
2021/09/30 14:27:34;;;;;;;65.97;6.22;;;17.70;63.60;;;;;;4997227;28;20029;-60
2021/09/30 14:30:00;;;;;;;73.50;6.10;;;17.80;64.00;;;;;;5000801;28;20036;-60
2021/09/30 14:32:25;;;;;;;52.80;6.40;;;17.80;64.00;;;;;;5014033;28;20030;-60
2021/09/30 14:34:51;;;;;;;81.75;8.82;;;17.80;63.70;;;;;;4997882;28;20727;-60
2021/09/30 14:37:16;;;;;;;46.40;4.32;;;17.80;64.10;;;;;;5011475;28;20021;-59
2021/09/30 14:39:42;;;;;;;66.65;7.35;;;17.80;63.10;;;;;;5006895;28;20726;-59
2021/09/30 14:42:09;;;;;;;61.70;5.20;;;17.90;63.60;;;;;;4985698;28;20765;-60
2021/09/30 14:44:34;;;;;;;81.07;7.10;;;17.90;63.20;;;;;;4993178;28;20108;-60
2021/09/30 14:47:01;;;;;;;69.57;6.40;;;18.00;63.60;;;;;;5010082;28;20186;-60
2021/09/30 14:49:27;;;;;;;61.80;6.63;;;18.00;63.30;;;;;;4991387;28;20144;-60
2021/09/30 14:51:53;;;;;;;49.85;6.28;;;18.00;63.40;;;;;;5010763;28;20033;-60
2021/09/30 14:54:19;;;;;;;47.58;6.57;;;18.00;63.20;;;;;;4973766;28;20029;-60
2021/09/30 14:56:47;;;;;;;67.53;7.38;;;18.00;62.80;;;;;;4987742;28;20495;-60
2021/09/30 14:59:13;;;;;;;37.20;4.28;;;18.10;62.90;;;;;;4994069;28;20125;-60
2021/09/30 15:01:39;;;;;;;59.88;5.40;;;18.10;62.60;;;;;;5012194;28;20176;-61
2021/09/30 15:04:06;;;;;;;70.38;7.68;;;18.20;62.70;;;;;;4998943;28;20477;-60
2021/09/30 15:06:37;;;;;;;68.50;6.70;;;18.20;62.20;;;;;;5012821;28;20550;-60
2021/09/30 15:09:03;;;;;;;53.03;6.20;;;18.20;62.30;;;;;;4990817;28;20046;-60
2021/09/30 15:11:29;;;;;;;63.40;7.50;;;18.30;62.60;;;;;;4993763;28;20052;-60
2021/09/30 15:13:54;;;;;;;73.90;8.27;;;18.40;62.60;;;;;;4998090;28;20033;-60
2021/09/30 15:16:20;;;;;;;79.53;6.63;;;18.40;62.50;;;;;;5013563;28;20461;-60